createdAt,value
2023-06-17T00:02:43.472Z,34.50
2023-06-17T00:07:47.770Z,23.25
2023-06-17T00:12:52.113Z,28.00
2023-06-17T00:17:56.359Z,23.75
2023-06-17T00:23:00.718Z,28.25
2023-06-17T00:28:05.273Z,26.50
2023-06-17T00:33:09.815Z,28.00
2023-06-17T00:38:14.036Z,29.75
2023-06-17T00:43:18.815Z,35.25
2023-06-17T00:48:23.913Z,31.50
2023-06-17T00:53:29.842Z,34.00
2023-06-17T00:58:34.916Z,27.75
2023-06-17T01:03:41.019Z,31.75
2023-06-17T01:08:54.933Z,34.75
2023-06-17T01:14:00.690Z,46.75
2023-06-17T01:19:06.737Z,38.00
2023-06-17T01:24:12.085Z,41.00
2023-06-17T01:29:17.368Z,45.00
2023-06-17T01:34:25.824Z,40.25
2023-06-17T01:39:32.647Z,44.75
2023-06-17T01:44:37.786Z,43.00
2023-06-17T01:49:42.933Z,36.25
2023-06-17T01:54:48.098Z,40.25
2023-06-17T01:59:54.653Z,40.50
2023-06-17T02:04:59.910Z,40.50
2023-06-17T02:10:06.201Z,40.00
2023-06-17T02:15:11.481Z,44.75
2023-06-17T02:20:17.289Z,34.25
2023-06-17T02:25:22.481Z,42.00
2023-06-17T02:30:27.311Z,40.00
2023-06-17T02:35:32.611Z,42.50
2023-06-17T02:40:37.867Z,33.50
2023-06-17T02:45:42.643Z,43.25
2023-06-17T02:50:47.981Z,39.75
2023-06-17T02:55:52.861Z,35.00
2023-06-17T03:01:00.787Z,42.00
2023-06-17T03:06:08.688Z,38.00
2023-06-17T03:11:17.199Z,46.00
2023-06-17T03:16:23.159Z,47.50
2023-06-17T03:21:28.373Z,45.50
2023-06-17T03:26:34.778Z,44.25
2023-06-17T03:31:39.777Z,42.00
2023-06-17T03:36:49.675Z,46.25
2023-06-17T03:41:57.107Z,44.00
2023-06-17T03:47:04.775Z,40.00
2023-06-17T03:52:10.152Z,37.00
2023-06-17T03:57:15.779Z,44.00
2023-06-17T04:02:20.923Z,39.75
2023-06-17T04:07:26.671Z,39.00
2023-06-17T04:12:31.957Z,43.75
2023-06-17T04:17:39.155Z,39.00
2023-06-17T04:22:44.743Z,43.00
2023-06-17T04:27:55.756Z,42.50
2023-06-17T04:33:03.122Z,47.25
2023-06-17T04:38:08.424Z,42.50
2023-06-17T04:43:13.501Z,41.00
2023-06-17T04:48:19.155Z,41.50
2023-06-17T04:53:24.817Z,45.25
2023-06-17T04:58:31.072Z,42.75
2023-06-17T05:03:43.998Z,41.25
2023-06-17T05:08:49.535Z,37.75
2023-06-17T05:13:56.620Z,38.50
2023-06-17T05:19:02.914Z,46.00
2023-06-17T05:24:08.280Z,37.75
2023-06-17T05:29:13.376Z,45.75
2023-06-17T05:34:20.656Z,46.25
2023-06-17T05:39:25.545Z,42.25
2023-06-17T05:44:30.893Z,40.25
2023-06-17T05:49:37.080Z,42.00
2023-06-17T05:54:43.515Z,41.50
2023-06-17T05:59:48.434Z,40.75
2023-06-17T06:04:53.120Z,46.00
2023-06-17T06:09:58.222Z,38.00
2023-06-17T06:15:03.133Z,39.50
2023-06-17T06:20:08.108Z,39.75
2023-06-17T06:25:12.873Z,39.50
2023-06-17T06:30:17.807Z,41.50
2023-06-17T06:35:27.163Z,41.25
2023-06-17T06:40:32.869Z,41.50
2023-06-17T06:45:39.238Z,42.75
2023-06-17T06:50:44.909Z,44.00
2023-06-17T06:55:50.081Z,36.75
2023-06-17T07:00:56.485Z,41.00
2023-06-17T07:06:02.812Z,37.00
2023-06-17T07:11:09.096Z,41.75
2023-06-17T07:16:13.929Z,38.50
2023-06-17T07:21:20.008Z,39.25
2023-06-17T07:26:26.082Z,45.50
2023-06-17T07:31:34.257Z,38.50
2023-06-17T07:36:39.392Z,36.75
2023-06-17T07:41:44.192Z,37.50
2023-06-17T07:46:49.088Z,41.25
2023-06-17T07:51:55.147Z,34.50
2023-06-17T07:57:00.307Z,37.25
2023-06-17T08:02:07.320Z,36.75
2023-06-17T08:07:14.930Z,37.25
2023-06-17T08:12:19.893Z,31.75
2023-06-17T08:17:25.021Z,38.75
2023-06-17T08:22:29.949Z,42.25
2023-06-17T08:27:34.898Z,37.00
2023-06-17T08:32:39.698Z,35.75
2023-06-17T08:37:44.772Z,34.25
2023-06-17T08:42:51.828Z,36.50
2023-06-17T08:47:56.975Z,38.75
2023-06-17T08:53:01.738Z,34.50
2023-06-17T08:58:06.802Z,39.25
2023-06-17T09:03:12.470Z,34.25
2023-06-17T09:08:17.976Z,35.75
2023-06-17T09:13:22.805Z,40.00
2023-06-17T09:18:27.589Z,35.75
2023-06-17T09:23:33.302Z,35.50
2023-06-17T09:28:38.014Z,34.00
2023-06-17T09:33:46.606Z,36.50
2023-06-17T09:38:53.870Z,33.50
2023-06-17T09:44:00.604Z,33.75
2023-06-17T09:49:17.947Z,37.00
2023-06-17T09:54:23.164Z,29.75
2023-06-17T09:59:29.289Z,29.50
2023-06-17T10:04:35.828Z,39.25
2023-06-17T10:09:43.889Z,35.25
2023-06-17T10:14:50.034Z,34.00
2023-06-17T10:19:55.786Z,37.25
2023-06-17T10:25:00.585Z,34.00
2023-06-17T10:30:25.039Z,39.25
2023-06-17T10:35:42.382Z,35.00
2023-06-17T10:40:52.573Z,39.75
2023-06-17T10:46:00.311Z,34.00
2023-06-17T10:51:14.336Z,33.00
2023-06-17T10:56:19.104Z,32.25
2023-06-17T11:01:24.860Z,38.25
2023-06-17T11:06:34.667Z,37.75
2023-06-17T11:11:39.699Z,37.75
2023-06-17T11:16:44.572Z,43.75
2023-06-17T11:22:07.885Z,42.25
2023-06-17T11:27:14.450Z,34.75
2023-06-17T11:32:22.794Z,36.00
2023-06-17T11:37:27.995Z,39.75
2023-06-17T11:42:32.973Z,40.75
2023-06-17T11:47:38.832Z,35.75
2023-06-17T11:52:56.613Z,36.25
2023-06-17T11:58:02.770Z,39.75
2023-06-17T12:03:07.943Z,41.50
2023-06-17T12:08:12.933Z,39.75
2023-06-17T12:13:18.944Z,39.00
2023-06-17T12:18:23.863Z,36.75
2023-06-17T12:23:31.841Z,39.50
2023-06-17T12:28:36.900Z,37.50
2023-06-17T12:33:42.416Z,39.75
2023-06-17T12:38:49.367Z,35.00
2023-06-17T12:43:54.132Z,36.25
2023-06-17T12:48:58.941Z,33.00
2023-06-17T12:54:03.651Z,34.50
2023-06-17T12:59:08.301Z,39.25
2023-06-17T13:04:14.413Z,41.75
2023-06-17T13:09:19.896Z,43.25
2023-06-17T13:14:25.511Z,36.50
2023-06-17T13:19:30.555Z,44.25
2023-06-17T13:24:35.319Z,40.25
2023-06-17T13:29:40.210Z,45.50
2023-06-17T13:34:45.520Z,38.75
2023-06-17T13:39:50.801Z,36.50
2023-06-17T13:44:55.606Z,40.75
2023-06-17T13:50:00.767Z,37.50
2023-06-17T13:55:05.670Z,38.25
2023-06-17T14:00:11.190Z,37.50
2023-06-17T14:05:16.508Z,39.25
2023-06-17T14:10:21.664Z,31.75
2023-06-17T14:15:28.150Z,33.75
2023-06-17T14:20:33.906Z,32.25
2023-06-17T14:25:38.824Z,35.25
2023-06-17T14:30:43.472Z,37.25
2023-06-17T14:35:48.259Z,31.25
2023-06-17T14:40:53.181Z,30.50
2023-06-17T14:45:59.246Z,28.75
2023-06-17T14:51:05.591Z,30.25
2023-06-17T14:56:19.973Z,27.50
2023-06-17T15:01:25.383Z,25.75
2023-06-17T15:06:30.579Z,28.75
2023-06-17T15:11:36.439Z,28.50
2023-06-17T15:16:41.144Z,33.00
2023-06-17T15:21:46.300Z,30.50
2023-06-17T15:26:51.261Z,29.75
2023-06-17T15:31:56.090Z,31.00
2023-06-17T15:37:00.774Z,27.50
2023-06-17T15:42:05.525Z,27.00
2023-06-17T15:47:10.194Z,24.50
2023-06-17T15:52:15.516Z,25.00
2023-06-17T15:57:20.293Z,25.75
2023-06-17T16:02:24.828Z,27.75
2023-06-17T16:07:29.799Z,27.50
2023-06-17T16:12:35.547Z,27.75
2023-06-17T16:17:43.091Z,29.50
2023-06-17T16:22:48.152Z,28.25
2023-06-17T16:27:52.946Z,26.75
2023-06-17T16:32:58.049Z,31.00
2023-06-17T16:38:02.979Z,25.75
2023-06-17T16:43:08.663Z,28.50
2023-06-17T16:48:13.715Z,27.50
2023-06-17T16:53:20.567Z,24.75
2023-06-17T16:58:25.470Z,27.00
2023-06-17T17:03:31.287Z,24.75
2023-06-17T17:08:36.741Z,26.00
2023-06-17T17:13:48.576Z,25.75
2023-06-17T17:18:54.724Z,24.75
2023-06-17T17:23:59.497Z,24.50
2023-06-17T17:29:04.994Z,27.25
2023-06-17T17:34:09.995Z,26.50
2023-06-17T17:39:14.798Z,26.50
2023-06-17T17:44:19.641Z,25.50
2023-06-17T17:49:24.767Z,24.00
2023-06-17T17:54:30.196Z,23.00
2023-06-17T17:59:34.920Z,24.75
2023-06-17T18:04:39.763Z,22.00
2023-06-17T18:09:45.215Z,21.50
2023-06-17T18:14:50.274Z,22.25
2023-06-17T18:19:54.880Z,24.00
2023-06-17T18:24:59.679Z,22.00
2023-06-17T18:30:05.617Z,29.00
2023-06-17T18:35:10.546Z,21.00
2023-06-17T18:40:16.375Z,23.25
2023-06-17T18:45:21.105Z,23.25
2023-06-17T18:50:25.905Z,25.25
2023-06-17T18:55:31.438Z,22.00
2023-06-17T19:00:37.743Z,23.25
2023-06-17T19:05:42.591Z,26.00
2023-06-17T19:10:47.581Z,25.25
2023-06-17T19:15:52.464Z,23.50
2023-06-17T19:20:57.378Z,22.75
2023-06-17T19:26:02.171Z,28.25
2023-06-17T19:31:07.141Z,24.75
2023-06-17T19:36:11.947Z,27.50
2023-06-17T19:41:17.017Z,23.75
2023-06-17T19:46:22.564Z,23.50
2023-06-17T19:51:27.488Z,21.00
2023-06-17T19:56:33.706Z,25.00
2023-06-17T20:01:38.301Z,24.50
2023-06-17T20:06:42.917Z,25.25
2023-06-17T20:11:48.186Z,26.50
2023-06-17T20:16:54.124Z,27.50
2023-06-17T20:21:59.028Z,24.25
2023-06-17T20:27:03.807Z,24.25
2023-06-17T20:32:09.160Z,22.75
2023-06-17T20:37:14.000Z,24.25
2023-06-17T20:42:18.766Z,24.75
2023-06-17T20:47:24.273Z,23.75
2023-06-17T20:52:28.978Z,25.25
2023-06-17T20:57:33.814Z,26.25
2023-06-17T21:02:38.835Z,29.25
2023-06-17T21:07:46.175Z,26.25
2023-06-17T21:12:51.661Z,27.00
2023-06-17T21:17:56.604Z,29.75
2023-06-17T21:23:02.250Z,33.00
2023-06-17T21:28:07.286Z,37.00
2023-06-17T21:33:12.207Z,31.50
2023-06-17T21:38:16.795Z,35.75
2023-06-17T21:43:21.651Z,36.25
2023-06-17T21:48:26.375Z,41.50
2023-06-17T21:53:32.061Z,44.25
2023-06-17T21:58:37.002Z,35.25
2023-06-17T22:03:42.990Z,44.00
2023-06-17T22:08:48.083Z,44.25
2023-06-17T22:13:53.128Z,48.25
2023-06-17T22:18:58.947Z,51.00
2023-06-17T22:24:03.542Z,55.75
2023-06-17T22:29:08.167Z,56.00
2023-06-17T22:34:13.107Z,51.00
2023-06-17T22:39:17.658Z,58.50
2023-06-17T22:44:22.645Z,56.50
2023-06-17T22:49:27.528Z,54.50
2023-06-17T22:54:34.213Z,62.00
2023-06-17T22:59:38.831Z,57.75
2023-06-17T23:04:44.343Z,61.00
2023-06-17T23:09:49.872Z,54.75
2023-06-17T23:14:54.807Z,58.25
2023-06-17T23:20:01.975Z,55.25
2023-06-17T23:25:08.146Z,56.00
2023-06-17T23:30:16.013Z,57.00
2023-06-17T23:35:20.771Z,60.50
2023-06-17T23:40:26.476Z,64.50
2023-06-17T23:45:31.880Z,64.00
2023-06-17T23:50:36.811Z,60.25
2023-06-17T23:55:41.584Z,65.50
